createdAt,value
2019-04-26T00:01:16.440Z,11.80
2019-04-26T00:03:47.873Z,11.80
2019-04-26T00:06:18.929Z,11.80
2019-04-26T00:09:09.384Z,11.70
2019-04-26T00:11:52.371Z,11.70
2019-04-26T00:14:42.048Z,11.70
2019-04-26T00:17:17.510Z,11.60
2019-04-26T00:19:48.628Z,11.60
2019-04-26T00:22:19.529Z,11.50
2019-04-26T00:24:50.113Z,11.50
2019-04-26T00:27:21.307Z,11.60
2019-04-26T00:29:52.005Z,11.50
2019-04-26T00:32:22.647Z,11.50
2019-04-26T00:34:53.339Z,11.40
2019-04-26T00:37:23.913Z,11.40
2019-04-26T00:39:54.491Z,11.40
2019-04-26T00:42:25.259Z,11.40
2019-04-26T00:44:57.200Z,11.40
2019-04-26T00:47:28.694Z,11.40
2019-04-26T00:50:00.280Z,11.30
2019-04-26T00:52:31.499Z,11.30
2019-04-26T00:55:02.802Z,11.30
2019-04-26T00:57:34.671Z,11.20
2019-04-26T01:00:06.912Z,11.20
2019-04-26T01:02:43.042Z,11.20
2019-04-26T01:05:14.568Z,11.10
2019-04-26T01:07:47.724Z,11.10
2019-04-26T01:10:19.563Z,11.00
2019-04-26T01:12:50.427Z,11.00
2019-04-26T01:15:22.050Z,10.90
2019-04-26T01:17:53.279Z,10.90
2019-04-26T01:20:25.509Z,10.80
2019-04-26T01:23:00.396Z,10.70
2019-04-26T01:25:44.243Z,10.70
2019-04-26T01:28:21.391Z,10.70
2019-04-26T01:30:54.837Z,10.70
2019-04-26T01:33:26.118Z,10.70
2019-04-26T01:35:56.859Z,10.60
2019-04-26T01:38:27.718Z,10.60
2019-04-26T01:41:01.711Z,10.60
2019-04-26T01:43:54.554Z,10.50
2019-04-26T01:46:32.025Z,10.50
2019-04-26T01:49:07.877Z,10.40
2019-04-26T01:51:46.270Z,10.40
2019-04-26T01:54:21.522Z,10.40
2019-04-26T01:56:56.140Z,10.30
2019-04-26T01:59:27.423Z,10.30
2019-04-26T02:02:09.486Z,10.30
2019-04-26T02:04:42.909Z,10.30
2019-04-26T02:07:15.997Z,10.30
2019-04-26T02:09:46.585Z,10.20
2019-04-26T02:12:17.289Z,10.20
2019-04-26T02:14:47.853Z,10.20
2019-04-26T02:17:18.549Z,10.10
2019-04-26T02:19:49.371Z,10.10
2019-04-26T02:22:27.929Z,10.10
2019-04-26T02:25:10.438Z,10.10
2019-04-26T02:27:41.042Z,10.20
2019-04-26T02:30:11.948Z,10.20
2019-04-26T02:32:44.721Z,10.20
2019-04-26T02:35:15.209Z,10.20
2019-04-26T02:37:45.926Z,10.10
2019-04-26T02:40:18.964Z,10.10
2019-04-26T02:42:50.038Z,10.20
2019-04-26T02:45:51.878Z,10.10
2019-04-26T02:48:42.158Z,10.10
2019-04-26T02:51:18.048Z,10.10
2019-04-26T02:54:14.255Z,10.00
2019-04-26T02:56:47.527Z,10.00
2019-04-26T02:59:40.764Z,10.00
2019-04-26T03:02:21.427Z,9.90
2019-04-26T03:04:56.660Z,9.90
2019-04-26T03:07:43.164Z,9.90
2019-04-26T03:10:14.128Z,9.80
2019-04-26T03:12:47.460Z,9.80
2019-04-26T03:15:31.613Z,9.70
2019-04-26T03:18:23.589Z,9.60
2019-04-26T03:21:00.006Z,9.50
2019-04-26T03:23:56.264Z,9.50
2019-04-26T03:26:35.628Z,9.50
2019-04-26T03:29:25.843Z,9.50
2019-04-26T03:32:27.108Z,9.50
2019-04-26T03:35:24.459Z,9.40
2019-04-26T03:38:24.229Z,9.50
2019-04-26T03:41:13.231Z,9.60
2019-04-26T03:44:06.363Z,9.60
2019-04-26T03:46:57.121Z,9.70
2019-04-26T03:49:54.577Z,9.70
2019-04-26T03:52:39.490Z,9.80
2019-04-26T03:55:49.276Z,9.90
2019-04-26T03:58:27.683Z,10.00
2019-04-26T04:01:04.690Z,10.10
2019-04-26T04:03:57.451Z,10.20
2019-04-26T04:06:31.532Z,10.30
2019-04-26T04:09:08.273Z,10.40
2019-04-26T04:12:09.577Z,10.40
2019-04-26T04:14:42.894Z,10.50
2019-04-26T04:17:41.296Z,10.60
2019-04-26T04:20:30.395Z,10.60
2019-04-26T04:23:41.287Z,10.70
2019-04-26T04:26:15.091Z,10.70
2019-04-26T04:29:18.331Z,10.80
2019-04-26T04:31:53.770Z,10.90
2019-04-26T04:34:40.062Z,11.00
2019-04-26T04:37:15.775Z,11.10
2019-04-26T04:40:14.535Z,11.20
2019-04-26T04:43:27.410Z,11.30
2019-04-26T04:46:36.836Z,11.40
2019-04-26T04:49:23.944Z,11.60
2019-04-26T04:52:20.759Z,11.70
2019-04-26T04:55:07.072Z,11.90
2019-04-26T04:57:38.943Z,12.10
2019-04-26T05:00:36.843Z,12.20
2019-04-26T05:03:36.729Z,12.30
2019-04-26T05:06:26.220Z,12.50
2019-04-26T05:09:08.261Z,12.60
2019-04-26T05:12:05.007Z,12.80
2019-04-26T05:14:48.050Z,12.90
2019-04-26T05:17:36.918Z,13.00
2019-04-26T05:20:28.052Z,13.10
2019-04-26T05:23:36.979Z,13.20
2019-04-26T05:26:53.565Z,13.40
2019-04-26T05:29:54.421Z,13.50
2019-04-26T05:32:51.159Z,13.70
2019-04-26T05:35:43.007Z,13.80
2019-04-26T05:38:33.091Z,14.00
2019-04-26T05:41:19.109Z,14.10
2019-04-26T05:44:12.910Z,14.30
2019-04-26T05:47:05.823Z,14.40
2019-04-26T05:50:20.459Z,14.60
2019-04-26T05:53:13.839Z,14.80
2019-04-26T05:56:19.934Z,15.00
2019-04-26T05:59:16.407Z,15.10
2019-04-26T06:02:30.049Z,15.30
2019-04-26T06:05:22.753Z,15.50
2019-04-26T06:08:31.554Z,15.70
2019-04-26T06:11:06.791Z,15.90
2019-04-26T06:14:16.539Z,16.00
2019-04-26T06:17:26.553Z,16.10
2019-04-26T06:20:23.030Z,16.30
2019-04-26T06:23:29.182Z,16.50
2019-04-26T06:26:34.140Z,16.60
2019-04-26T06:29:08.685Z,16.70
2019-04-26T06:31:51.236Z,16.90
2019-04-26T06:34:44.719Z,17.10
2019-04-26T06:37:30.820Z,17.20
2019-04-26T06:40:15.000Z,17.40
2019-04-26T06:43:26.548Z,17.50
2019-04-26T06:46:27.429Z,17.60
2019-04-26T06:49:18.787Z,17.80
2019-04-26T06:51:57.076Z,17.90
2019-04-26T06:54:51.304Z,18.10
2019-04-26T06:58:07.336Z,18.20
2019-04-26T07:01:10.783Z,18.40
2019-04-26T07:03:58.183Z,18.60
2019-04-26T07:06:35.196Z,18.80
2019-04-26T07:09:11.698Z,19.00
2019-04-26T07:12:41.589Z,19.10
2019-04-26T07:15:49.528Z,19.20
2019-04-26T07:18:47.138Z,19.40
2019-04-26T07:21:43.929Z,19.60
2019-04-26T07:25:02.159Z,19.70
2019-04-26T07:28:03.640Z,19.90
2019-04-26T07:30:54.568Z,20.00
2019-04-26T07:33:50.289Z,20.20
2019-04-26T07:37:02.898Z,20.40
2019-04-26T07:40:31.151Z,20.60
2019-04-26T07:43:32.509Z,20.90
2019-04-26T07:46:40.359Z,21.10
2019-04-26T07:49:49.509Z,21.30
2019-04-26T07:52:36.545Z,21.40
2019-04-26T07:55:45.666Z,21.60
2019-04-26T07:58:42.360Z,21.80
2019-04-26T08:01:29.595Z,21.90
2019-04-26T08:04:09.492Z,22.10
2019-04-26T08:06:55.809Z,22.30
2019-04-26T08:09:28.590Z,22.40
2019-04-26T08:12:06.067Z,22.60
2019-04-26T08:14:49.442Z,22.70
2019-04-26T08:17:45.226Z,22.80
2019-04-26T08:20:55.682Z,22.90
2019-04-26T08:23:39.651Z,23.00
2019-04-26T08:26:13.529Z,23.10
2019-04-26T08:28:46.827Z,23.30
2019-04-26T08:31:24.402Z,23.40
2019-04-26T08:33:59.422Z,23.60
2019-04-26T08:36:35.349Z,23.70
2019-04-26T08:39:13.023Z,23.90
2019-04-26T08:41:45.891Z,24.10
2019-04-26T08:44:24.414Z,24.30
2019-04-26T08:47:16.370Z,24.40
2019-04-26T08:49:51.268Z,24.60
2019-04-26T08:52:25.162Z,24.80
2019-04-26T08:54:57.844Z,24.80
2019-04-26T08:57:33.108Z,24.90
2019-04-26T09:00:09.673Z,25.10
2019-04-26T09:03:11.332Z,25.20
2019-04-26T09:05:57.249Z,25.40
2019-04-26T09:08:32.868Z,25.50
2019-04-26T09:11:05.836Z,25.60
2019-04-26T09:13:40.687Z,25.70
2019-04-26T09:16:14.984Z,25.70
2019-04-26T09:18:52.602Z,25.70
2019-04-26T09:21:28.907Z,25.70
2019-04-26T09:24:13.761Z,25.80
2019-04-26T09:26:48.541Z,25.90
2019-04-26T09:29:38.481Z,26.10
2019-04-26T09:32:11.917Z,26.10
2019-04-26T09:34:43.203Z,26.20
2019-04-26T09:37:14.223Z,26.40
2019-04-26T09:39:44.920Z,26.60
2019-04-26T09:42:39.249Z,26.70
2019-04-26T09:45:27.532Z,26.80
2019-04-26T09:48:13.764Z,27.00
2019-04-26T09:50:46.939Z,27.20
2019-04-26T09:53:18.575Z,27.20
2019-04-26T09:55:49.266Z,27.40
2019-04-26T09:58:19.930Z,27.50
2019-04-26T10:00:50.842Z,27.60
2019-04-26T10:03:21.669Z,27.60
2019-04-26T10:05:55.801Z,27.80
2019-04-26T10:08:25.063Z,27.80
2019-04-26T10:10:55.640Z,27.70
2019-04-26T10:13:33.208Z,27.80
2019-04-26T10:16:23.034Z,28.10
2019-04-26T10:18:58.327Z,28.30
2019-04-26T10:21:30.197Z,28.40
2019-04-26T10:24:00.861Z,28.40
2019-04-26T10:26:31.414Z,28.50
2019-04-26T10:29:03.189Z,28.50
2019-04-26T10:31:33.888Z,28.40
2019-04-26T10:34:07.675Z,28.30
2019-04-26T10:36:37.181Z,28.20
2019-04-26T10:39:10.337Z,28.20
2019-04-26T10:41:42.124Z,28.50
2019-04-26T10:44:12.882Z,28.90
2019-04-26T10:46:54.999Z,29.20
2019-04-26T10:49:40.545Z,29.10
2019-04-26T10:52:18.741Z,28.90
2019-04-26T10:54:55.705Z,29.20
2019-04-26T10:57:33.074Z,29.60
2019-04-26T11:00:07.120Z,30.00
2019-04-26T11:02:37.836Z,29.90
2019-04-26T11:05:11.654Z,29.90
2019-04-26T11:07:41.259Z,29.50
2019-04-26T11:10:12.153Z,29.30
2019-04-26T11:12:44.832Z,29.60
2019-04-26T11:15:18.318Z,30.10
2019-04-26T11:17:49.970Z,30.80
2019-04-26T11:20:23.219Z,31.20
2019-04-26T11:22:54.143Z,31.50
2019-04-26T11:25:28.132Z,31.70
2019-04-26T11:27:57.299Z,31.80
2019-04-26T11:30:28.110Z,31.70
2019-04-26T11:32:58.837Z,31.60
2019-04-26T11:35:33.222Z,31.10
2019-04-26T11:38:02.055Z,30.30
2019-04-26T11:40:32.807Z,29.90
2019-04-26T11:43:03.727Z,30.10
2019-04-26T11:45:34.349Z,30.40
2019-04-26T11:48:05.115Z,31.10
2019-04-26T11:50:36.059Z,31.70
2019-04-26T11:53:10.138Z,31.80
2019-04-26T11:55:39.152Z,31.50
2019-04-26T11:58:09.896Z,30.90
2019-04-26T12:00:45.029Z,30.70
2019-04-26T12:03:15.779Z,31.10
2019-04-26T12:06:05.937Z,31.60
2019-04-26T12:08:42.522Z,32.10
2019-04-26T12:11:18.641Z,32.60
2019-04-26T12:13:45.655Z,33.00
2019-04-26T12:16:18.891Z,33.50
2019-04-26T12:18:49.120Z,33.90
2019-04-26T12:21:19.806Z,34.50
2019-04-26T12:23:55.500Z,34.60
2019-04-26T12:26:25.543Z,34.90
2019-04-26T12:28:56.242Z,35.20
2019-04-26T12:31:26.800Z,35.20
2019-04-26T12:33:57.729Z,35.30
2019-04-26T12:36:28.448Z,35.20
2019-04-26T12:39:02.253Z,35.30
2019-04-26T12:41:40.232Z,35.30
2019-04-26T12:44:07.397Z,35.70
2019-04-26T12:46:46.333Z,36.00
2019-04-26T12:49:20.256Z,36.30
2019-04-26T12:51:52.051Z,36.70
2019-04-26T12:54:21.815Z,36.70
2019-04-26T12:56:52.739Z,36.90
2019-04-26T12:59:26.603Z,37.10
2019-04-26T13:02:05.435Z,37.20
2019-04-26T13:04:36.031Z,37.40
2019-04-26T13:07:24.018Z,37.10
2019-04-26T13:10:10.978Z,36.10
2019-04-26T13:12:50.007Z,34.30
2019-04-26T13:16:02.856Z,34.00
2019-04-26T13:18:33.627Z,34.00
2019-04-26T13:21:04.484Z,33.80
2019-04-26T13:23:35.432Z,33.70
2019-04-26T13:26:06.037Z,33.70
2019-04-26T13:28:36.584Z,33.40
2019-04-26T13:31:08.341Z,33.00
2019-04-26T13:33:38.933Z,32.60
2019-04-26T13:36:09.984Z,32.20
2019-04-26T13:38:43.424Z,32.20
2019-04-26T13:41:13.937Z,32.30
2019-04-26T13:43:44.884Z,32.30
2019-04-26T13:46:34.689Z,32.40
2019-04-26T13:49:24.640Z,32.30
2019-04-26T13:51:55.311Z,31.40
2019-04-26T13:54:26.001Z,30.50
2019-04-26T13:56:56.788Z,29.60
2019-04-26T13:59:28.088Z,29.10
2019-04-26T14:02:10.884Z,28.90
2019-04-26T14:04:32.073Z,29.10
2019-04-26T14:07:05.117Z,29.30
2019-04-26T14:09:35.839Z,29.10
2019-04-26T14:12:18.133Z,29.00
2019-04-26T14:14:39.367Z,28.80
2019-04-26T14:17:09.926Z,28.70
2019-04-26T14:19:40.717Z,28.70
2019-04-26T14:22:12.789Z,29.00
2019-04-26T14:24:53.070Z,29.30
2019-04-26T14:27:45.454Z,29.50
2019-04-26T14:30:16.537Z,29.30
2019-04-26T14:32:47.205Z,29.00
2019-04-26T14:35:17.970Z,28.80
2019-04-26T14:37:49.947Z,28.60
2019-04-26T14:40:20.920Z,28.60
2019-04-26T14:43:05.702Z,28.80
2019-04-26T14:45:24.276Z,28.90
2019-04-26T14:48:00.177Z,28.80
2019-04-26T14:50:32.069Z,28.60
2019-04-26T14:53:02.342Z,28.50
2019-04-26T14:55:33.582Z,28.30
2019-04-26T14:58:04.598Z,27.90
2019-04-26T15:00:38.420Z,27.60
2019-04-26T15:03:20.846Z,27.50
2019-04-26T15:06:00.512Z,27.40
2019-04-26T15:08:33.674Z,27.50
2019-04-26T15:11:04.423Z,27.70
2019-04-26T15:13:40.311Z,27.80
2019-04-26T15:16:11.774Z,27.70
2019-04-26T15:18:42.526Z,27.70
2019-04-26T15:21:13.195Z,27.80
2019-04-26T15:23:44.038Z,28.00
2019-04-26T15:26:14.642Z,28.10
2019-04-26T15:28:50.415Z,28.30
2019-04-26T15:31:21.586Z,28.50
2019-04-26T15:33:52.827Z,28.70
2019-04-26T15:36:23.731Z,28.80
2019-04-26T15:38:55.073Z,29.10
2019-04-26T15:41:43.152Z,29.20
2019-04-26T15:44:28.388Z,29.40
2019-04-26T15:47:07.638Z,29.60
2019-04-26T15:49:50.277Z,29.70
2019-04-26T15:52:21.175Z,29.70
2019-04-26T15:54:52.991Z,30.10
2019-04-26T15:57:31.193Z,30.40
2019-04-26T15:59:58.026Z,30.40
2019-04-26T16:02:29.092Z,30.00
2019-04-26T16:04:59.969Z,29.90
2019-04-26T16:07:30.741Z,29.90
2019-04-26T16:10:01.557Z,29.80
2019-04-26T16:12:32.378Z,30.10
2019-04-26T16:15:06.670Z,30.50
2019-04-26T16:17:40.111Z,31.40
2019-04-26T16:20:10.002Z,32.20
2019-04-26T16:22:42.972Z,32.80
2019-04-26T16:25:15.474Z,33.20
2019-04-26T16:27:46.312Z,33.20
2019-04-26T16:30:37.444Z,32.60
2019-04-26T16:33:10.229Z,32.00
2019-04-26T16:35:42.106Z,31.50
2019-04-26T16:38:33.118Z,31.10
2019-04-26T16:41:06.009Z,30.40
2019-04-26T16:43:40.519Z,30.00
2019-04-26T16:46:12.654Z,30.00
2019-04-26T16:48:44.201Z,30.00
2019-04-26T16:51:14.422Z,29.90
2019-04-26T16:54:02.823Z,29.60
2019-04-26T16:56:17.481Z,29.20
2019-04-26T16:58:48.154Z,28.50
2019-04-26T17:01:19.020Z,27.70
2019-04-26T17:03:49.609Z,27.00
2019-04-26T17:06:23.271Z,26.40
2019-04-26T17:09:00.876Z,25.80
2019-04-26T17:11:26.382Z,25.30
2019-04-26T17:14:00.394Z,24.80
2019-04-26T17:16:33.600Z,24.50
2019-04-26T17:19:01.811Z,24.10
2019-04-26T17:21:37.472Z,23.70
2019-04-26T17:24:27.244Z,23.30
2019-04-26T17:27:05.310Z,23.00
2019-04-26T17:29:36.165Z,22.60
2019-04-26T17:32:09.060Z,22.30
2019-04-26T17:34:40.536Z,22.00
2019-04-26T17:37:17.066Z,21.70
2019-04-26T17:39:47.617Z,21.40
2019-04-26T17:42:17.087Z,21.10
2019-04-26T17:44:47.716Z,20.80
2019-04-26T17:47:18.271Z,20.50
2019-04-26T17:49:50.173Z,20.30
2019-04-26T17:52:21.224Z,20.00
2019-04-26T17:54:52.133Z,19.80
2019-04-26T17:57:33.745Z,19.50
2019-04-26T18:00:06.763Z,19.30
2019-04-26T18:02:41.319Z,19.20
2019-04-26T18:05:03.233Z,19.10
2019-04-26T18:07:40.621Z,18.90
2019-04-26T18:10:08.069Z,18.70
2019-04-26T18:12:40.852Z,18.60
2019-04-26T18:15:14.363Z,18.40
2019-04-26T18:18:04.336Z,18.30
2019-04-26T18:20:54.280Z,18.10
2019-04-26T18:23:26.193Z,18.00
2019-04-26T18:25:56.935Z,17.80
2019-04-26T18:28:27.663Z,17.60
2019-04-26T18:30:58.393Z,17.60
2019-04-26T18:33:29.083Z,17.40
2019-04-26T18:36:00.846Z,17.40
2019-04-26T18:38:31.588Z,17.30
2019-04-26T18:41:03.612Z,17.20
2019-04-26T18:43:34.395Z,17.10
2019-04-26T18:46:12.758Z,17.10
2019-04-26T18:48:44.015Z,17.10
2019-04-26T18:51:15.881Z,17.00
2019-04-26T18:54:09.286Z,16.90
2019-04-26T18:56:40.669Z,16.90
2019-04-26T18:59:12.905Z,16.80
2019-04-26T19:01:45.973Z,16.70
2019-04-26T19:04:16.868Z,16.70
2019-04-26T19:06:48.309Z,16.60
2019-04-26T19:09:23.513Z,16.60
2019-04-26T19:11:56.260Z,16.50
2019-04-26T19:14:49.848Z,16.40
2019-04-26T19:17:34.294Z,16.40
2019-04-26T19:20:17.169Z,16.30
2019-04-26T19:22:56.514Z,16.30
2019-04-26T19:25:29.887Z,16.20
2019-04-26T19:28:04.437Z,16.20
2019-04-26T19:30:39.973Z,16.10
2019-04-26T19:33:16.731Z,16.00
2019-04-26T19:35:48.954Z,16.00
2019-04-26T19:38:21.354Z,15.90
2019-04-26T19:40:53.963Z,15.90
2019-04-26T19:43:31.049Z,15.90
2019-04-26T19:46:07.455Z,15.90
2019-04-26T19:48:59.974Z,15.90
2019-04-26T19:51:49.319Z,15.90
2019-04-26T19:54:36.852Z,15.80
2019-04-26T19:57:05.752Z,15.70
2019-04-26T19:59:36.773Z,15.70
2019-04-26T20:02:08.149Z,15.70
2019-04-26T20:04:38.859Z,15.70
2019-04-26T20:07:11.549Z,15.60
2019-04-26T20:09:42.198Z,15.70
2019-04-26T20:12:13.483Z,15.70
2019-04-26T20:14:50.395Z,15.70
2019-04-26T20:17:19.753Z,15.70
2019-04-26T20:19:52.815Z,15.70
2019-04-26T20:22:28.142Z,15.60
2019-04-26T20:24:57.358Z,15.50
2019-04-26T20:27:27.837Z,15.50
2019-04-26T20:29:58.178Z,15.40
2019-04-26T20:32:35.585Z,15.40
2019-04-26T20:35:19.855Z,15.30
2019-04-26T20:37:52.122Z,15.20
2019-04-26T20:40:25.554Z,15.20
2019-04-26T20:43:01.666Z,15.10
2019-04-26T20:45:39.834Z,15.20
2019-04-26T20:48:02.399Z,15.10
2019-04-26T20:50:36.706Z,15.10
2019-04-26T20:53:05.833Z,15.00
2019-04-26T20:55:36.443Z,15.00
2019-04-26T20:58:08.776Z,14.90
2019-04-26T21:00:40.069Z,14.80
2019-04-26T21:03:23.181Z,14.70
2019-04-26T21:05:46.549Z,14.60
2019-04-26T21:08:19.496Z,14.50
2019-04-26T21:10:48.996Z,14.50
2019-04-26T21:13:23.673Z,14.50
2019-04-26T21:15:58.154Z,14.50
2019-04-26T21:18:24.498Z,14.40
2019-04-26T21:20:55.159Z,14.40
2019-04-26T21:23:25.881Z,14.30
2019-04-26T21:26:07.095Z,14.30
2019-04-26T21:28:54.141Z,14.20
2019-04-26T21:31:36.531Z,14.10
2019-04-26T21:34:15.917Z,14.20
2019-04-26T21:37:05.489Z,14.20
2019-04-26T21:39:44.134Z,14.20
2019-04-26T21:42:13.164Z,14.10
2019-04-26T21:44:44.687Z,14.10
2019-04-26T21:47:15.971Z,14.10
2019-04-26T21:49:47.528Z,14.00
2019-04-26T21:52:21.489Z,14.00
2019-04-26T21:54:53.132Z,13.90
2019-04-26T21:57:27.895Z,13.90
2019-04-26T21:59:55.527Z,14.00
2019-04-26T22:02:29.674Z,13.90
2019-04-26T22:04:59.103Z,14.00
2019-04-26T22:07:29.753Z,13.90
2019-04-26T22:10:09.329Z,13.90
2019-04-26T22:12:38.604Z,13.90
2019-04-26T22:15:29.521Z,13.90
2019-04-26T22:18:04.951Z,13.90
2019-04-26T22:20:54.640Z,13.90
2019-04-26T22:23:33.187Z,13.80
2019-04-26T22:26:07.287Z,13.80
2019-04-26T22:28:37.614Z,13.80
2019-04-26T22:31:08.748Z,13.80
2019-04-26T22:33:39.695Z,13.70
2019-04-26T22:36:10.337Z,13.70
2019-04-26T22:38:42.776Z,13.70
2019-04-26T22:41:13.531Z,13.60
2019-04-26T22:44:03.856Z,13.60
2019-04-26T22:46:53.953Z,13.50
2019-04-26T22:49:24.725Z,13.40
2019-04-26T22:51:55.678Z,13.30
2019-04-26T22:54:26.289Z,13.30
2019-04-26T22:56:57.037Z,13.30
2019-04-26T22:59:27.670Z,13.20
2019-04-26T23:01:58.395Z,13.20
2019-04-26T23:04:29.038Z,13.20
2019-04-26T23:07:03.479Z,13.20
2019-04-26T23:09:34.175Z,13.10
2019-04-26T23:12:16.441Z,13.10
2019-04-26T23:15:06.479Z,13.00
2019-04-26T23:17:54.695Z,12.90
2019-04-26T23:20:34.335Z,12.90
2019-04-26T23:23:05.173Z,12.80
2019-04-26T23:25:34.488Z,12.80
2019-04-26T23:28:05.227Z,12.80
2019-04-26T23:30:36.964Z,12.80
2019-04-26T23:33:07.369Z,12.70
2019-04-26T23:35:43.488Z,12.70
2019-04-26T23:38:10.377Z,12.60
2019-04-26T23:40:41.008Z,12.50
2019-04-26T23:43:13.011Z,12.50
2019-04-26T23:45:48.300Z,12.50
2019-04-26T23:48:16.114Z,12.50
2019-04-26T23:50:46.822Z,12.50
2019-04-26T23:53:20.112Z,12.50
2019-04-26T23:55:49.539Z,12.50
2019-04-26T23:58:20.194Z,12.40
